Time;durP1;ratioP1;P1;durP2;ratioP2;P2;SDS_P1;SDS_P2;PMS_P1;PMS_P2;Temp;Humidity;BMP_temperature;BMP_pressure;BME280_temperature;BME280_humidity;BME280_pressure;Samples;Min_cycle;Max_cycle;Signal;HPM_P1;HPM_P2
2022/06/19 00:00:34;;;;;;;23.33;3.67;;;16.50;99.90;;;;;;5039713;28;20794;-79
2022/06/19 00:03:07;;;;;;;11.20;2.63;;;16.50;99.90;;;;;;5041852;28;20247;-77
2022/06/19 00:05:34;;;;;;;13.40;3.37;;;16.40;99.90;;;;;;5042297;28;20205;-79
2022/06/19 00:08:01;;;;;;;18.93;3.80;;;16.40;99.90;;;;;;5040728;28;20278;-76
2022/06/19 00:10:27;;;;;;;14.13;2.90;;;16.30;99.90;;;;;;5032236;28;20228;-79
2022/06/19 00:12:54;;;;;;;16.47;3.33;;;16.40;99.90;;;;;;5032322;28;20206;-78
2022/06/19 00:15:21;;;;;;;10.97;2.70;;;16.30;99.90;;;;;;5030395;28;20697;-79
2022/06/19 00:17:48;;;;;;;11.70;2.77;;;16.30;99.90;;;;;;5031867;28;20216;-79
2022/06/19 00:20:15;;;;;;;13.57;3.00;;;16.30;99.90;;;;;;5030930;28;20397;-78
2022/06/19 00:22:42;;;;;;;16.03;3.53;;;16.20;99.90;;;;;;5031356;28;20209;-79
2022/06/19 00:25:09;;;;;;;15.97;3.03;;;16.20;99.90;;;;;;5035821;28;20252;-80
2022/06/19 00:27:38;;;;;;;19.23;3.13;;;16.20;99.90;;;;;;5042046;28;20239;-79
2022/06/19 00:30:07;;;;;;;18.33;3.40;;;16.20;99.90;;;;;;5043001;28;20217;-79
2022/06/19 00:32:34;;;;;;;15.13;3.00;;;16.10;99.90;;;;;;5041813;28;20208;-77
2022/06/19 00:35:01;;;;;;;12.13;3.07;;;16.10;99.90;;;;;;5043097;28;20227;-79
2022/06/19 00:37:29;;;;;;;20.23;3.20;;;16.10;99.90;;;;;;5039716;28;20212;-80
2022/06/19 00:39:56;;;;;;;13.27;2.97;;;16.10;99.90;;;;;;5042173;28;20225;-78
2022/06/19 00:42:24;;;;;;;17.73;3.53;;;16.20;99.90;;;;;;5038756;28;20264;-80
2022/06/19 00:44:52;;;;;;;13.83;3.13;;;16.10;99.90;;;;;;5037910;28;20660;-80
2022/06/19 00:47:34;;;;;;;14.57;3.37;;;16.10;99.90;;;;;;5038308;28;20278;-80
2022/06/19 00:50:04;;;;;;;12.87;2.53;;;16.00;99.90;;;;;;5046003;28;20260;-79
2022/06/19 00:52:35;;;;;;;15.70;4.00;;;16.00;99.90;;;;;;5042633;28;20270;-79
2022/06/19 00:55:08;;;;;;;13.37;3.23;;;16.00;99.90;;;;;;5038050;28;20214;-79
2022/06/19 00:57:41;;;;;;;12.83;3.30;;;15.90;99.90;;;;;;5040373;28;20616;-79
2022/06/19 01:00:12;;;;;;;11.17;3.37;;;15.90;99.90;;;;;;5037215;28;20245;-80
2022/06/19 01:02:40;;;;;;;20.20;3.20;;;15.90;99.90;;;;;;5038842;28;20209;-75
2022/06/19 01:05:11;;;;;;;14.07;3.00;;;15.90;99.90;;;;;;5055856;28;20302;-79
2022/06/19 01:07:40;;;;;;;11.97;3.37;;;15.90;99.90;;;;;;5041144;28;20230;-78
2022/06/19 01:10:08;;;;;;;15.97;3.03;;;15.90;99.90;;;;;;5038772;28;20218;-80
2022/06/19 01:12:35;;;;;;;16.77;3.80;;;15.90;99.90;;;;;;5039055;28;20205;-79
2022/06/19 01:15:08;;;;;;;16.07;4.20;;;15.80;99.90;;;;;;5040501;28;20219;-77
2022/06/19 01:17:35;;;;;;;19.17;2.73;;;15.80;99.90;;;;;;5041048;28;20210;-79
2022/06/19 01:20:09;;;;;;;16.27;3.73;;;15.80;99.90;;;;;;5042142;28;20211;-81
2022/06/19 01:22:47;;;;;;;13.93;3.03;;;15.80;99.90;;;;;;5039826;28;20206;-79
2022/06/19 01:25:19;;;;;;;13.47;2.73;;;15.80;99.90;;;;;;5034580;28;20766;-78
2022/06/19 01:30:37;;;;;;;16.50;3.17;;;15.80;99.90;;;;;;5038091;28;20210;-79
2022/06/19 01:33:08;;;;;;;14.27;2.43;;;15.80;99.90;;;;;;5071971;28;20252;-78
2022/06/19 01:35:37;;;;;;;12.17;2.70;;;15.80;99.90;;;;;;5041825;28;20205;-78
2022/06/19 01:38:10;;;;;;;11.23;2.37;;;15.90;99.90;;;;;;5038011;28;20683;-80
2022/06/19 01:40:39;;;;;;;9.77;2.30;;;15.90;99.90;;;;;;5037503;28;20228;-80
2022/06/19 01:43:06;;;;;;;9.87;2.20;;;15.90;99.90;;;;;;5038824;28;20552;-78
2022/06/19 01:45:35;;;;;;;13.80;3.10;;;16.00;99.90;;;;;;5034985;28;20220;-80
2022/06/19 01:48:02;;;;;;;15.13;3.20;;;16.00;99.90;;;;;;5036592;28;20783;-78
2022/06/19 01:50:31;;;;;;;12.53;2.40;;;16.00;99.90;;;;;;5037531;28;20729;-78
2022/06/19 01:53:21;;;;;;;10.73;2.33;;;16.10;99.90;;;;;;5037708;28;20236;-78
2022/06/19 01:55:49;;;;;;;16.10;3.30;;;16.00;99.90;;;;;;5038349;28;20229;-80
2022/06/19 01:58:18;;;;;;;12.47;3.03;;;15.90;99.90;;;;;;5042284;28;20248;-79
2022/06/19 02:00:48;;;;;;;12.23;3.37;;;15.90;99.90;;;;;;5073483;28;20846;-78
2022/06/19 02:03:25;;;;;;;14.37;2.30;;;15.90;99.90;;;;;;5040999;28;20320;-79
2022/06/19 02:05:53;;;;;;;16.37;2.93;;;15.90;99.90;;;;;;5037496;28;20197;-79
2022/06/19 02:08:20;;;;;;;16.30;3.20;;;15.90;99.90;;;;;;5040887;28;20677;-79
2022/06/19 02:10:48;;;;;;;11.93;3.07;;;15.90;99.90;;;;;;5038214;28;20218;-79
2022/06/19 02:13:18;;;;;;;11.17;2.87;;;15.90;99.90;;;;;;5037966;28;20206;-78
2022/06/19 02:15:47;;;;;;;13.37;2.80;;;15.90;99.90;;;;;;5039226;28;20518;-79
2022/06/19 02:18:36;;;;;;;11.73;2.50;;;15.90;99.90;;;;;;5038929;28;20214;-79
2022/06/19 02:21:06;;;;;;;13.63;2.40;;;15.90;99.90;;;;;;5040083;28;20288;-79
2022/06/19 02:23:35;;;;;;;12.73;3.73;;;15.90;99.90;;;;;;5042630;28;20209;-78
2022/06/19 02:26:05;;;;;;;9.50;2.27;;;16.00;99.90;;;;;;5041237;28;20265;-78
2022/06/19 02:28:36;;;;;;;9.07;2.53;;;16.00;99.90;;;;;;5039328;28;20234;-79
2022/06/19 02:31:06;;;;;;;10.57;2.50;;;16.00;99.90;;;;;;5038058;28;20297;-79
2022/06/19 02:33:40;;;;;;;8.73;2.07;;;16.10;99.90;;;;;;5038091;28;20228;-80
2022/06/19 02:36:37;;;;;;;9.93;2.20;;;16.10;99.90;;;;;;5037464;28;20260;-79
2022/06/19 02:39:30;;;;;;;11.33;2.00;;;16.00;99.90;;;;;;5039602;28;20210;-78
2022/06/19 02:42:22;;;;;;;7.73;1.67;;;16.00;99.90;;;;;;5036669;28;20666;-80
2022/06/19 02:44:54;;;;;;;9.40;1.70;;;15.90;99.90;;;;;;5040495;28;20292;-78
2022/06/19 02:47:23;;;;;;;6.33;1.30;;;15.90;99.90;;;;;;5037684;28;20243;-78
2022/06/19 02:49:51;;;;;;;8.57;2.17;;;15.90;99.90;;;;;;5040054;28;20211;-77
2022/06/19 02:52:19;;;;;;;10.40;1.50;;;15.90;99.90;;;;;;5042237;28;20204;-78
2022/06/19 02:54:46;;;;;;;7.20;1.43;;;15.90;99.90;;;;;;5042847;28;20287;-77
2022/06/19 02:57:14;;;;;;;11.10;1.80;;;15.90;99.90;;;;;;5045826;28;20210;-77
2022/06/19 02:59:43;;;;;;;6.03;1.60;;;15.90;99.90;;;;;;5045712;28;20279;-79
2022/06/19 03:02:12;;;;;;;6.73;1.73;;;15.90;99.90;;;;;;5042909;28;20194;-79
2022/06/19 03:04:45;;;;;;;8.33;1.70;;;15.90;99.90;;;;;;5045380;28;20304;-77
2022/06/19 03:07:12;;;;;;;7.87;1.80;;;15.80;99.90;;;;;;5072506;28;20570;-79
2022/06/19 03:09:38;;;;;;;6.20;1.63;;;15.80;99.90;;;;;;5075052;28;20225;-79
2022/06/19 03:12:07;;;;;;;8.53;2.03;;;15.80;99.90;;;;;;5038889;28;20209;-77
2022/06/19 03:14:40;;;;;;;8.83;1.97;;;15.80;99.90;;;;;;5068457;28;20257;-79
2022/06/19 03:17:07;;;;;;;6.60;2.00;;;15.80;99.90;;;;;;5041859;28;20255;-80
2022/06/19 03:19:34;;;;;;;11.50;1.80;;;15.80;99.90;;;;;;5030713;28;20215;-78
2022/06/19 03:22:02;;;;;;;10.70;2.07;;;15.80;99.90;;;;;;5031981;28;20209;-79
2022/06/19 03:24:29;;;;;;;9.37;1.97;;;15.70;99.90;;;;;;5032580;28;20225;-77
2022/06/19 03:26:56;;;;;;;10.83;2.33;;;15.70;99.90;;;;;;5030992;28;20218;-78
2022/06/19 03:29:23;;;;;;;12.90;2.20;;;15.70;99.90;;;;;;5030486;28;20252;-79
2022/06/19 03:31:49;;;;;;;12.70;2.70;;;15.70;99.90;;;;;;5030092;28;20260;-81
2022/06/19 03:34:16;;;;;;;14.40;2.33;;;15.70;99.90;;;;;;5043474;28;20290;-79
2022/06/19 03:36:43;;;;;;;9.40;1.90;;;15.80;99.90;;;;;;5038555;28;20312;-78
2022/06/19 03:39:10;;;;;;;11.40;1.97;;;15.70;99.90;;;;;;5037427;28;20503;-79
2022/06/19 03:41:38;;;;;;;11.10;2.30;;;15.70;99.90;;;;;;5041544;28;20263;-81
2022/06/19 03:44:05;;;;;;;9.23;2.37;;;15.70;99.90;;;;;;5037872;28;20235;-79
2022/06/19 03:46:33;;;;;;;16.07;2.30;;;15.80;99.90;;;;;;5038494;28;20226;-79
2022/06/19 03:49:00;;;;;;;9.80;2.57;;;15.80;99.90;;;;;;5040224;28;20697;-80
2022/06/19 03:51:27;;;;;;;12.00;2.00;;;15.80;99.90;;;;;;5038345;28;20210;-78
2022/06/19 03:53:55;;;;;;;14.30;4.50;;;15.80;99.90;;;;;;5038209;28;20240;-77
2022/06/19 03:56:29;;;;;;;11.03;2.10;;;15.80;99.90;;;;;;5039552;28;20207;-78
2022/06/19 03:58:57;;;;;;;10.70;2.70;;;15.80;99.90;;;;;;5037257;28;20217;-79
2022/06/19 04:01:28;;;;;;;14.67;2.33;;;15.80;99.90;;;;;;5041167;28;20213;-79
2022/06/19 04:03:56;;;;;;;9.70;2.80;;;15.80;99.90;;;;;;5036725;28;20293;-78
2022/06/19 04:06:29;;;;;;;11.47;2.70;;;15.80;99.90;;;;;;5037024;28;20567;-78
2022/06/19 04:08:57;;;;;;;12.80;2.40;;;15.80;99.90;;;;;;5037263;28;20317;-80
2022/06/19 04:11:26;;;;;;;11.73;2.87;;;15.80;99.90;;;;;;5036387;28;20247;-80
2022/06/19 04:13:53;;;;;;;13.63;2.50;;;15.90;99.90;;;;;;5036496;28;20272;-80
2022/06/19 04:16:26;;;;;;;7.97;2.30;;;15.90;99.90;;;;;;5036387;28;20210;-80
2022/06/19 04:18:55;;;;;;;8.33;1.70;;;15.90;99.90;;;;;;5040687;28;20764;-80
2022/06/19 04:21:27;;;;;;;12.63;2.40;;;16.00;99.90;;;;;;5038137;28;20268;-79
2022/06/19 04:23:56;;;;;;;9.03;2.03;;;16.00;99.90;;;;;;5037271;28;20272;-79
2022/06/19 04:26:25;;;;;;;7.40;1.70;;;15.90;99.90;;;;;;5039576;28;20217;-82
2022/06/19 04:28:53;;;;;;;9.20;2.03;;;15.90;99.90;;;;;;5040557;28;20230;-81
2022/06/19 04:31:20;;;;;;;11.40;1.70;;;15.90;99.90;;;;;;5038387;28;20210;-79
2022/06/19 04:33:47;;;;;;;11.70;2.60;;;15.90;99.90;;;;;;5041023;28;20292;-80
2022/06/19 04:36:17;;;;;;;5.33;1.53;;;15.90;99.90;;;;;;5044314;28;20224;-81
2022/06/19 04:38:47;;;;;;;7.57;1.50;;;16.00;99.90;;;;;;5032260;28;20218;-80
2022/06/19 04:41:39;;;;;;;6.77;2.30;;;16.10;99.90;;;;;;5031732;28;20714;-83
2022/06/19 04:44:08;;;;;;;4.73;1.43;;;16.10;99.90;;;;;;5031492;28;20244;-81
2022/06/19 04:46:35;;;;;;;6.30;1.53;;;16.10;99.90;;;;;;5035907;28;20210;-81
2022/06/19 04:49:02;;;;;;;8.57;2.23;;;16.10;99.90;;;;;;5040199;28;20605;-81
2022/06/19 04:51:33;;;;;;;4.87;1.57;;;16.10;99.90;;;;;;5040106;28;20582;-80
2022/06/19 04:54:00;;;;;;;5.07;1.53;;;16.20;99.90;;;;;;5041728;28;20217;-81
2022/06/19 04:56:27;;;;;;;7.03;1.70;;;16.30;99.90;;;;;;5041012;28;20213;-81
2022/06/19 04:58:54;;;;;;;6.37;1.77;;;16.30;99.90;;;;;;5040266;28;20208;-80
2022/06/19 05:01:26;;;;;;;6.63;1.60;;;16.20;99.90;;;;;;5046549;28;20194;-80
2022/06/19 05:03:57;;;;;;;7.13;1.70;;;16.10;99.90;;;;;;5039442;28;20238;-81
2022/06/19 05:06:25;;;;;;;5.50;1.20;;;16.10;99.90;;;;;;5036874;28;20205;-79
2022/06/19 05:08:52;;;;;;;7.67;1.50;;;16.10;99.90;;;;;;5042406;28;20268;-82
2022/06/19 05:11:20;;;;;;;5.80;1.40;;;16.10;99.90;;;;;;5046464;28;20678;-82
2022/06/19 05:13:50;;;;;;;6.60;1.30;;;16.20;99.90;;;;;;5031078;28;20229;-81
2022/06/19 05:16:19;;;;;;;5.17;1.47;;;16.20;99.90;;;;;;5030920;28;20202;-81
2022/06/19 05:18:50;;;;;;;5.97;1.40;;;16.30;99.90;;;;;;5030485;28;20210;-82
2022/06/19 05:21:21;;;;;;;5.77;2.40;;;16.40;99.90;;;;;;5030422;28;20216;-79
2022/06/19 05:23:51;;;;;;;5.17;1.30;;;16.60;99.90;;;;;;5031111;28;20201;-80
2022/06/19 05:26:25;;;;;;;5.40;1.37;;;16.90;99.90;;;;;;5038274;28;20259;-81
2022/06/19 05:28:53;;;;;;;3.50;1.47;;;17.20;99.90;;;;;;5042808;28;20532;-81
2022/06/19 05:31:23;;;;;;;4.67;1.63;;;17.50;99.80;;;;;;5037789;28;20205;-81
2022/06/19 05:33:50;;;;;;;5.05;1.38;;;17.80;99.70;;;;;;5042318;28;20208;-79
2022/06/19 05:36:18;;;;;;;4.32;1.48;;;18.40;98.80;;;;;;5054390;28;20209;-79
2022/06/19 05:38:50;;;;;;;6.35;1.33;;;19.00;98.00;;;;;;5058887;28;20285;-80
2022/06/19 05:41:18;;;;;;;4.95;1.30;;;19.20;97.10;;;;;;5048855;28;20209;-79
2022/06/19 05:43:48;;;;;;;7.28;1.80;;;19.10;96.80;;;;;;5050606;28;20198;-79
2022/06/19 05:46:16;;;;;;;4.90;1.33;;;18.80;97.20;;;;;;5051525;28;20210;-79
2022/06/19 05:48:43;;;;;;;5.25;1.80;;;18.60;98.30;;;;;;5058982;28;20209;-78
2022/06/19 05:51:14;;;;;;;6.80;1.60;;;18.50;99.10;;;;;;5050502;28;20210;-78
2022/06/19 05:53:44;;;;;;;6.57;1.70;;;18.20;99.90;;;;;;5042650;28;20233;-79
2022/06/19 05:56:11;;;;;;;7.88;1.63;;;18.10;99.90;;;;;;5038522;28;20221;-77
2022/06/19 05:58:39;;;;;;;5.68;1.65;;;18.00;99.90;;;;;;5041780;28;20283;-80
2022/06/19 06:01:06;;;;;;;6.45;1.58;;;17.90;99.90;;;;;;5037927;28;20700;-82
2022/06/19 06:03:33;;;;;;;8.32;1.75;;;17.90;99.90;;;;;;5035976;28;20705;-80
2022/06/19 06:06:05;;;;;;;5.53;1.75;;;18.00;99.90;;;;;;5040542;28;20251;-79
2022/06/19 06:08:35;;;;;;;8.10;1.50;;;18.20;99.90;;;;;;5043981;28;20288;-80
2022/06/19 06:11:03;;;;;;;9.63;2.00;;;18.30;99.90;;;;;;5038352;28;20222;-78
2022/06/19 06:13:30;;;;;;;7.72;1.85;;;18.20;99.90;;;;;;5040503;28;20735;-78
2022/06/19 06:15:58;;;;;;;8.90;1.80;;;18.20;99.90;;;;;;5041483;28;20217;-78
2022/06/19 06:18:25;;;;;;;7.43;1.58;;;18.10;99.90;;;;;;5040313;28;20210;-79
2022/06/19 06:20:57;;;;;;;11.07;2.70;;;18.00;99.90;;;;;;5039024;28;20666;-80
2022/06/19 06:23:24;;;;;;;12.13;2.10;;;17.90;99.90;;;;;;5044446;28;20226;-78
2022/06/19 06:26:08;;;;;;;8.83;1.87;;;17.70;99.90;;;;;;5047618;28;20214;-77
2022/06/19 06:28:38;;;;;;;12.60;2.17;;;17.60;99.90;;;;;;5049181;28;20256;-80
2022/06/19 06:31:06;;;;;;;10.43;2.30;;;17.30;99.90;;;;;;5052114;28;20206;-78
2022/06/19 06:33:33;;;;;;;12.17;2.90;;;17.20;99.90;;;;;;5045869;28;20571;-79
2022/06/19 06:36:00;;;;;;;8.30;2.20;;;17.00;99.90;;;;;;5049774;28;20264;-79
2022/06/19 06:38:27;;;;;;;10.37;2.20;;;16.90;99.90;;;;;;5069055;28;20202;-80
2022/06/19 06:40:55;;;;;;;13.20;2.57;;;16.90;99.90;;;;;;5050780;28;20256;-79
2022/06/19 06:43:22;;;;;;;13.77;2.83;;;16.80;99.90;;;;;;5046147;28;20213;-79
2022/06/19 06:45:49;;;;;;;10.73;2.40;;;16.70;99.90;;;;;;5047130;28;20665;-79
2022/06/19 06:48:18;;;;;;;14.93;2.40;;;16.70;99.90;;;;;;5044076;28;20239;-79
2022/06/19 06:50:46;;;;;;;13.87;2.57;;;16.60;99.90;;;;;;5041733;28;20268;-79
2022/06/19 06:53:13;;;;;;;14.17;2.97;;;16.60;99.90;;;;;;5043367;28;20689;-78
2022/06/19 06:55:44;;;;;;;15.27;2.80;;;16.60;99.90;;;;;;5041450;28;20297;-80
2022/06/19 06:58:11;;;;;;;13.87;2.23;;;16.50;99.90;;;;;;5038887;28;20278;-77
2022/06/19 07:00:39;;;;;;;15.43;2.87;;;16.50;99.90;;;;;;5041899;28;20205;-79
2022/06/19 07:03:06;;;;;;;12.17;2.50;;;16.40;99.90;;;;;;5037547;28;20244;-78
2022/06/19 07:05:34;;;;;;;16.50;5.07;;;16.40;99.90;;;;;;5037645;28;20646;-78
2022/06/19 07:08:01;;;;;;;10.83;2.57;;;16.30;99.90;;;;;;5028968;28;20548;-77
2022/06/19 07:10:28;;;;;;;12.67;2.80;;;16.10;99.90;;;;;;5028946;28;20225;-78
2022/06/19 07:12:55;;;;;;;15.00;4.00;;;15.90;99.90;;;;;;5028252;28;20738;-76
2022/06/19 07:15:22;;;;;;;10.40;2.97;;;15.90;99.90;;;;;;5029592;28;20216;-78
2022/06/19 07:17:49;;;;;;;10.47;3.10;;;15.80;99.90;;;;;;5028472;28;20263;-77
2022/06/19 07:20:16;;;;;;;12.63;3.10;;;15.80;99.90;;;;;;5028495;28;20209;-77
2022/06/19 07:22:43;;;;;;;14.77;3.00;;;15.80;99.90;;;;;;5036214;28;20209;-77
2022/06/19 07:25:16;;;;;;;9.17;2.93;;;15.70;99.90;;;;;;5037675;28;20222;-78
2022/06/19 07:27:43;;;;;;;10.00;2.40;;;15.70;99.90;;;;;;5040910;28;20252;-76
2022/06/19 07:30:16;;;;;;;14.00;2.70;;;15.60;99.90;;;;;;5036986;28;20225;-79
2022/06/19 07:32:43;;;;;;;12.13;2.93;;;15.50;99.90;;;;;;5037504;28;20621;-77
2022/06/19 07:35:11;;;;;;;15.00;3.13;;;15.50;99.90;;;;;;5038236;28;20211;-77
2022/06/19 07:37:38;;;;;;;13.23;3.03;;;15.40;99.90;;;;;;5037486;28;20210;-76
2022/06/19 07:40:05;;;;;;;21.07;3.00;;;15.40;99.90;;;;;;5068423;28;20257;-77
2022/06/19 07:42:32;;;;;;;15.10;3.03;;;15.30;99.90;;;;;;5040866;28;20748;-79
2022/06/19 07:44:59;;;;;;;15.87;2.90;;;15.30;99.90;;;;;;5040875;28;20214;-77
2022/06/19 07:50:16;;;;;;;13.53;3.10;;;15.20;99.90;;;;;;5043411;28;20328;-78
2022/06/19 07:52:49;;;;;;;13.77;2.87;;;15.10;99.90;;;;;;5049751;28;20206;-77
2022/06/19 07:55:25;;;;;;;13.17;2.97;;;15.10;99.90;;;;;;5041752;28;20287;-76
2022/06/19 07:57:53;;;;;;;13.93;3.33;;;15.00;99.90;;;;;;5035694;28;20663;-76
2022/06/19 08:00:23;;;;;;;12.70;2.90;;;15.00;99.90;;;;;;5038075;28;20495;-75
2022/06/19 08:02:53;;;;;;;15.90;3.13;;;15.00;99.90;;;;;;5041625;28;20284;-76
2022/06/19 08:05:26;;;;;;;14.57;2.80;;;14.90;99.90;;;;;;5039238;28;20282;-77
2022/06/19 08:07:54;;;;;;;12.00;3.57;;;14.90;99.90;;;;;;5044936;28;20555;-78
2022/06/19 08:10:25;;;;;;;9.73;2.97;;;15.00;99.90;;;;;;5051595;28;20260;-78
2022/06/19 08:12:52;;;;;;;19.00;3.00;;;15.10;99.90;;;;;;5043122;28;20213;-78
2022/06/19 08:15:20;;;;;;;17.40;3.10;;;14.90;99.90;;;;;;5032743;28;20658;-79
2022/06/19 08:17:47;;;;;;;13.27;2.67;;;14.90;99.90;;;;;;5032600;28;20274;-77
2022/06/19 08:20:16;;;;;;;16.63;3.80;;;14.80;99.90;;;;;;5034465;28;20299;-80
2022/06/19 08:22:44;;;;;;;13.80;3.40;;;14.80;99.90;;;;;;5037665;28;20228;-82
2022/06/19 08:25:12;;;;;;;17.90;3.20;;;14.80;99.90;;;;;;5031656;28;20218;-79
2022/06/19 08:27:42;;;;;;;21.37;3.00;;;14.80;99.90;;;;;;5036936;28;20217;-80
2022/06/19 08:30:33;;;;;;;16.97;3.97;;;14.70;99.90;;;;;;5043325;28;20229;-80
2022/06/19 08:33:07;;;;;;;16.63;4.07;;;14.70;99.90;;;;;;5045067;28;20205;-78
2022/06/19 08:35:45;;;;;;;13.33;2.90;;;14.70;99.90;;;;;;5051336;28;20216;-80
2022/06/19 08:38:17;;;;;;;12.43;3.00;;;14.70;99.90;;;;;;5043386;28;20222;-78
2022/06/19 08:41:06;;;;;;;11.77;2.77;;;14.70;99.90;;;;;;5043526;28;20267;-81
2022/06/19 08:44:08;;;;;;;14.43;2.73;;;14.60;99.90;;;;;;5058582;28;20223;-79
2022/06/19 08:47:14;;;;;;;17.20;3.33;;;14.70;99.90;;;;;;5040846;28;20201;-78
2022/06/19 08:50:06;;;;;;;11.63;3.23;;;14.70;99.90;;;;;;5039785;28;20728;-79
2022/06/19 08:52:59;;;;;;;9.27;4.33;;;14.80;99.90;;;;;;5043372;28;20228;-76
2022/06/19 08:55:44;;;;;;;13.33;3.40;;;14.80;99.90;;;;;;5040188;28;20608;-79
2022/06/19 08:58:45;;;;;;;12.73;3.37;;;14.90;99.90;;;;;;5047907;28;20240;-77
2022/06/19 09:01:54;;;;;;;15.37;3.73;;;15.00;99.90;;;;;;5046402;28;20263;-78
2022/06/19 09:07:50;;;;;;;12.80;3.93;;;15.20;99.90;;;;;;5044103;28;20213;-78
2022/06/19 09:10:45;;;;;;;13.83;3.90;;;15.40;99.90;;;;;;5046973;28;20579;-76
2022/06/19 09:13:11;;;;;;;16.10;3.67;;;15.50;99.90;;;;;;5044046;28;20244;-78
2022/06/19 09:15:47;;;;;;;15.53;3.60;;;15.60;99.90;;;;;;5040189;28;20229;-78
2022/06/19 09:18:39;;;;;;;11.07;3.63;;;15.70;99.90;;;;;;5039698;28;20209;-78
2022/06/19 09:21:10;;;;;;;14.23;3.67;;;15.80;99.90;;;;;;5038030;28;20209;-78
2022/06/19 09:24:08;;;;;;;12.30;3.97;;;15.80;99.90;;;;;;5038775;28;20248;-79
2022/06/19 09:26:46;;;;;;;11.90;3.77;;;15.80;99.90;;;;;;5040283;28;20260;-79
2022/06/19 09:29:40;;;;;;;13.43;3.57;;;15.80;99.90;;;;;;5038435;28;20225;-79
2022/06/19 09:32:34;;;;;;;11.07;4.43;;;15.90;99.90;;;;;;5038852;28;20264;-79
2022/06/19 09:35:41;;;;;;;16.37;4.77;;;16.10;99.90;;;;;;5046055;28;20290;-79
2022/06/19 09:38:21;;;;;;;15.13;4.77;;;16.20;99.90;;;;;;5041967;28;20205;-78
2022/06/19 09:40:54;;;;;;;12.97;4.07;;;16.40;99.90;;;;;;5039693;28;20542;-78
2022/06/19 09:43:42;;;;;;;10.90;3.80;;;16.50;99.90;;;;;;5038986;28;20313;-78
2022/06/19 09:46:15;;;;;;;12.33;4.17;;;16.80;99.90;;;;;;5040925;28;20300;-79
2022/06/19 09:49:02;;;;;;;12.93;3.40;;;17.10;99.90;;;;;;5041292;28;20255;-78
2022/06/19 09:51:39;;;;;;;12.07;3.90;;;17.40;99.90;;;;;;5037916;28;20213;-78
2022/06/19 09:54:15;;;;;;;13.23;4.30;;;17.80;99.90;;;;;;5039781;28;20217;-78
2022/06/19 09:56:49;;;;;;;11.25;3.60;;;18.20;99.90;;;;;;5041478;28;20212;-75
2022/06/19 09:59:27;;;;;;;10.32;3.95;;;18.40;99.90;;;;;;5038389;28;20224;-75
2022/06/19 10:01:58;;;;;;;7.68;3.13;;;18.60;99.90;;;;;;5038342;28;20739;-77
2022/06/19 10:04:56;;;;;;;11.45;3.45;;;18.60;99.90;;;;;;5041634;28;20237;-76
2022/06/19 10:07:45;;;;;;;8.55;3.15;;;18.70;99.90;;;;;;5039727;28;20210;-75
2022/06/19 10:10:21;;;;;;;13.75;4.53;;;18.90;99.90;;;;;;5038903;28;20364;-75
2022/06/19 10:12:50;;;;;;;15.60;3.80;;;19.00;99.90;;;;;;5035551;28;20228;-77
2022/06/19 10:15:26;;;;;;;11.32;3.35;;;19.00;99.90;;;;;;5036808;28;20206;-76
2022/06/19 10:18:19;;;;;;;12.05;3.10;;;18.90;99.90;;;;;;5037383;28;20694;-76
2022/06/19 10:21:09;;;;;;;8.95;3.40;;;18.90;99.90;;;;;;5036017;28;20624;-76
2022/06/19 10:24:03;;;;;;;9.85;3.13;;;18.70;99.90;;;;;;5035283;28;20221;-76
2022/06/19 10:26:59;;;;;;;11.05;2.90;;;18.60;99.90;;;;;;5039492;28;20827;-76
2022/06/19 10:29:52;;;;;;;11.05;3.33;;;18.60;99.90;;;;;;5035957;28;20711;-75
2022/06/19 10:32:38;;;;;;;8.32;3.13;;;18.50;99.90;;;;;;5038809;28;20244;-75
2022/06/19 10:35:05;;;;;;;8.43;2.90;;;18.50;99.90;;;;;;5039270;28;20280;-76
2022/06/19 10:37:35;;;;;;;9.25;2.95;;;18.60;99.90;;;;;;5039779;28;20656;-76
2022/06/19 10:40:05;;;;;;;11.50;3.10;;;18.80;99.90;;;;;;5037739;28;20225;-77
2022/06/19 10:43:09;;;;;;;11.55;3.47;;;18.80;99.90;;;;;;5040277;28;20205;-75
2022/06/19 10:45:46;;;;;;;11.38;3.35;;;18.90;99.90;;;;;;5036258;28;20628;-77
2022/06/19 10:48:25;;;;;;;8.15;3.13;;;18.70;99.90;;;;;;5035331;28;20248;-76
2022/06/19 10:51:28;;;;;;;12.63;3.22;;;18.70;99.90;;;;;;5038454;28;20680;-77
2022/06/19 10:54:14;;;;;;;9.77;2.88;;;;;;;;;;5054982;28;20684;-76
2022/06/19 10:57:26;;;;;;;5.32;2.22;;;18.40;99.90;;;;;;5038620;28;20260;-76
2022/06/19 10:59:53;;;;;;;10.20;2.55;;;18.10;99.90;;;;;;5038496;28;20279;-75
2022/06/19 11:05:38;;;;;;;5.57;2.28;;;17.80;99.90;;;;;;5039658;28;20291;-75
2022/06/19 11:08:06;;;;;;;9.93;3.30;;;17.70;99.90;;;;;;5038711;28;20217;-77
2022/06/19 11:10:39;;;;;;;13.52;3.00;;;17.50;99.90;;;;;;5036796;28;20237;-77
2022/06/19 11:13:07;;;;;;;12.37;3.90;;;17.50;99.90;;;;;;5036852;28;20655;-76
2022/06/19 11:15:37;;;;;;;7.43;2.67;;;17.40;99.90;;;;;;5038409;28;20213;-76
2022/06/19 11:18:19;;;;;;;10.52;2.97;;;17.40;99.90;;;;;;5040100;28;20267;-77
2022/06/19 11:21:27;;;;;;;6.30;2.65;;;17.30;99.90;;;;;;5035982;28;20611;-76
2022/06/19 11:23:57;;;;;;;8.27;3.00;;;17.30;99.90;;;;;;5025525;28;20213;-77
2022/06/19 11:26:39;;;;;;;11.65;2.70;;;17.30;99.90;;;;;;5025450;28;20677;-77
2022/06/19 11:29:18;;;;;;;8.07;2.77;;;17.20;99.90;;;;;;5031533;28;20209;-76
2022/06/19 11:32:21;;;;;;;12.20;3.20;;;17.20;99.90;;;;;;5037818;28;20213;-78
2022/06/19 11:35:01;;;;;;;12.90;3.47;;;17.20;99.90;;;;;;5042737;28;20636;-75
2022/06/19 11:37:51;;;;;;;14.60;4.50;;;17.20;99.90;;;;;;5038444;28;20213;-77
2022/06/19 11:40:34;;;;;;;12.37;3.40;;;17.20;99.90;;;;;;5037590;28;20749;-75
2022/06/19 11:43:03;;;;;;;11.35;3.42;;;17.30;99.90;;;;;;5038050;28;20209;-77
2022/06/19 11:45:34;;;;;;;9.40;3.55;;;17.50;99.90;;;;;;5040262;28;20213;-78
2022/06/19 11:48:06;;;;;;;7.20;2.80;;;17.60;99.90;;;;;;5039835;28;20276;-77
2022/06/19 11:50:33;;;;;;;5.80;2.67;;;17.80;99.90;;;;;;5038954;28;20298;-77
2022/06/19 11:53:05;;;;;;;8.75;2.90;;;17.90;99.90;;;;;;5041000;28;20206;-77
2022/06/19 11:55:37;;;;;;;9.13;3.35;;;18.10;99.90;;;;;;5040642;28;20230;-78
2022/06/19 11:58:26;;;;;;;12.45;3.40;;;18.20;99.90;;;;;;5043654;28;20260;-76
2022/06/19 12:01:06;;;;;;;7.07;3.05;;;18.30;99.90;;;;;;5043665;28;20207;-76
2022/06/19 12:03:45;;;;;;;11.88;3.70;;;18.50;99.90;;;;;;5040729;28;20225;-76
2022/06/19 12:06:14;;;;;;;8.38;2.70;;;18.60;99.90;;;;;;5040176;28;20675;-76
2022/06/19 12:09:00;;;;;;;8.85;2.65;;;18.90;99.90;;;;;;5042249;28;20251;-77
2022/06/19 12:12:06;;;;;;;9.68;2.65;;;19.30;99.90;;;;;;5040406;28;20577;-75
2022/06/19 12:14:46;;;;;;;8.20;2.60;;;19.50;99.90;;;;;;5028087;28;20214;-77
2022/06/19 12:17:19;;;;;;;7.32;2.67;;;19.60;99.90;;;;;;5039188;28;20205;-77
2022/06/19 12:19:55;;;;;;;9.05;2.90;;;19.70;99.90;;;;;;5039782;28;20256;-76
2022/06/19 12:22:44;;;;;;;7.72;2.35;;;19.90;99.90;;;;;;5039184;28;20626;-76
2022/06/19 12:25:31;;;;;;;6.78;2.33;;;20.10;99.90;;;;;;5039097;28;20244;-77
2022/06/19 12:28:15;;;;;;;6.18;2.25;;;20.20;99.90;;;;;;5038665;28;20260;-76
2022/06/19 12:30:48;;;;;;;8.30;2.47;;;20.10;99.90;;;;;;5038816;28;20708;-77
2022/06/19 12:33:42;;;;;;;7.90;1.98;;;20.10;99.90;;;;;;5040925;28;20319;-76
2022/06/19 12:36:17;;;;;;;11.40;2.55;;;20.00;99.90;;;;;;5039337;28;20634;-76
2022/06/19 12:38:47;;;;;;;10.73;2.15;;;19.80;99.90;;;;;;5038507;28;20665;-77
2022/06/19 12:41:37;;;;;;;9.52;2.30;;;19.70;99.90;;;;;;5037570;28;20631;-78
2022/06/19 12:44:15;;;;;;;6.38;2.22;;;19.60;99.90;;;;;;5038618;28;20205;-76
2022/06/19 12:47:16;;;;;;;8.55;2.35;;;19.50;99.90;;;;;;5037757;28;20209;-76
2022/06/19 12:50:20;;;;;;;5.60;2.10;;;19.50;99.90;;;;;;5041078;28;20215;-77
2022/06/19 12:53:05;;;;;;;4.45;1.80;;;19.30;99.90;;;;;;5039803;28;20205;-75
2022/06/19 12:55:50;;;;;;;6.25;2.00;;;19.30;99.90;;;;;;5037603;28;20346;-76
2022/06/19 12:58:30;;;;;;;6.40;2.40;;;19.30;99.90;;;;;;5037721;28;20217;-76
2022/06/19 13:01:01;;;;;;;8.57;1.70;;;19.30;99.90;;;;;;5040970;28;20209;-78
2022/06/19 13:04:05;;;;;;;5.97;2.03;;;19.20;99.90;;;;;;5034970;28;20233;-78
2022/06/19 13:07:09;;;;;;;9.43;2.25;;;19.10;99.90;;;;;;5034592;28;20226;-79
2022/06/19 13:10:05;;;;;;;5.03;1.63;;;19.10;99.90;;;;;;5040564;28;20225;-78
2022/06/19 13:12:41;;;;;;;7.55;1.95;;;19.20;99.90;;;;;;5038399;28;20213;-77
2022/06/19 13:15:21;;;;;;;4.90;1.45;;;19.30;99.90;;;;;;5041370;28;20213;-77
2022/06/19 13:18:12;;;;;;;8.18;2.05;;;19.50;99.90;;;;;;5038144;28;20685;-78
2022/06/19 13:20:57;;;;;;;3.25;1.38;;;19.60;99.90;;;;;;5038725;28;20217;-78
2022/06/19 13:23:35;;;;;;;4.10;1.55;;;19.80;99.90;;;;;;5037657;28;20241;-78
2022/06/19 13:30:01;;;;;;;5.00;1.52;;;20.30;99.90;;;;;;5038483;28;20216;-77
2022/06/19 13:32:47;;;;;;;8.40;1.80;;;20.60;99.90;;;;;;5027098;28;20540;-76